Terminal Aerodrome Forecast
Issued by NWS

Home | Current Version | Previous Version | Text Only | Print | Product List | Glossary On
Versions: 1 2 3 4 5 6 7 8 9 10 11 12
000
FTUS42 KGSP 031733
TAFGMU
TAF
KGMU 031733Z 0318/0418 05003KT P6SM SCT060 BKN250
     FM040000 02004KT P6SM SCT070
     FM040900 03005KT P6SM SCT060=

USA.gov is the U.S. government's official web portal to all federal, state and local government web resources and services.